Time;durP1;ratioP1;P1;durP2;ratioP2;P2;SDS_P1;SDS_P2;PMS_P1;PMS_P2;Temp;Humidity;BMP_temperature;BMP_pressure;BME280_temperature;BME280_humidity;BME280_pressure;Samples;Min_cycle;Max_cycle;Signal;HPM_P1;HPM_P2
2023/08/08 00:00:20;;;;;;;4.87;2.40;;;12.90;99.90;;;;;;5004435;28;21077;-63
2023/08/08 00:02:48;;;;;;;2.97;2.23;;;12.90;99.90;;;;;;5004823;28;21100;-64
2023/08/08 00:05:16;;;;;;;2.73;2.40;;;12.90;99.90;;;;;;5006381;28;20488;-64
2023/08/08 00:07:44;;;;;;;4.17;2.47;;;12.90;99.90;;;;;;5005561;28;20496;-64
2023/08/08 00:10:12;;;;;;;3.10;2.30;;;12.90;99.90;;;;;;5003918;28;20492;-64
2023/08/08 00:12:40;;;;;;;5.70;2.60;;;12.90;99.90;;;;;;5002776;28;20508;-64
2023/08/08 00:15:09;;;;;;;3.90;2.57;;;12.90;99.90;;;;;;5004945;28;20464;-64
2023/08/08 00:17:38;;;;;;;3.73;2.60;;;12.90;99.90;;;;;;5002957;28;20563;-64
2023/08/08 00:20:08;;;;;;;7.00;2.33;;;12.90;99.90;;;;;;5004389;28;20499;-63
2023/08/08 00:22:36;;;;;;;5.20;3.00;;;12.90;99.90;;;;;;5003613;28;20531;-64
2023/08/08 00:25:04;;;;;;;4.53;2.50;;;12.90;99.90;;;;;;5005532;28;21070;-63
2023/08/08 00:27:32;;;;;;;2.77;2.40;;;12.90;99.90;;;;;;5005233;28;20487;-64
2023/08/08 00:30:01;;;;;;;4.00;2.87;;;12.90;99.90;;;;;;5004770;28;20560;-64
2023/08/08 00:32:29;;;;;;;5.77;2.87;;;12.90;99.90;;;;;;5004120;28;21021;-64
2023/08/08 00:34:58;;;;;;;5.70;3.10;;;12.90;99.90;;;;;;5004576;28;20468;-64
2023/08/08 00:37:26;;;;;;;4.00;2.97;;;12.90;99.90;;;;;;5004435;28;20496;-64
2023/08/08 00:39:54;;;;;;;3.17;2.33;;;12.90;99.90;;;;;;5006010;28;20499;-63
2023/08/08 00:42:22;;;;;;;2.70;2.20;;;12.80;99.90;;;;;;5005448;28;20586;-64
2023/08/08 00:44:50;;;;;;;4.23;2.80;;;12.90;99.90;;;;;;5010521;28;20563;-64
2023/08/08 00:47:18;;;;;;;4.00;2.73;;;12.90;99.90;;;;;;5007883;28;20568;-64
2023/08/08 00:49:48;;;;;;;4.07;2.57;;;12.90;99.90;;;;;;5006327;28;20481;-64
2023/08/08 00:52:17;;;;;;;4.63;2.67;;;12.90;99.90;;;;;;5003882;28;20500;-64
2023/08/08 00:54:46;;;;;;;4.77;2.33;;;12.90;99.90;;;;;;5010670;28;21034;-64
2023/08/08 00:57:14;;;;;;;3.17;2.10;;;12.90;99.90;;;;;;5009705;28;20578;-63
2023/08/08 00:59:42;;;;;;;3.63;2.20;;;12.80;99.90;;;;;;5009197;28;20889;-64
2023/08/08 01:02:10;;;;;;;4.60;2.40;;;12.80;99.90;;;;;;5009531;28;20523;-63
2023/08/08 01:04:39;;;;;;;4.50;2.27;;;12.80;99.90;;;;;;5007226;28;20520;-64
2023/08/08 01:07:13;;;;;;;6.10;3.00;;;12.80;99.90;;;;;;5006479;28;21037;-62
2023/08/08 01:09:49;;;;;;;4.97;2.63;;;12.80;99.90;;;;;;5007761;28;20833;-64
2023/08/08 01:12:17;;;;;;;7.30;2.77;;;12.80;99.90;;;;;;5006118;28;20945;-63
2023/08/08 01:14:46;;;;;;;5.07;2.17;;;12.80;99.90;;;;;;5009479;28;20475;-64
2023/08/08 01:17:14;;;;;;;3.13;2.23;;;12.80;99.90;;;;;;5009698;28;20972;-64
2023/08/08 01:19:43;;;;;;;3.53;2.97;;;12.80;99.90;;;;;;5008500;28;20563;-64
2023/08/08 01:22:25;;;;;;;3.40;2.30;;;12.80;99.90;;;;;;5005843;28;21121;-64
2023/08/08 01:24:56;;;;;;;5.33;3.20;;;12.80;99.90;;;;;;5009393;28;20468;-63
2023/08/08 01:27:24;;;;;;;3.60;2.30;;;12.80;99.90;;;;;;5007580;28;20543;-64
2023/08/08 01:29:53;;;;;;;2.50;2.20;;;12.80;99.90;;;;;;5006643;28;20978;-64
2023/08/08 01:32:21;;;;;;;2.13;1.80;;;12.80;99.90;;;;;;5005489;28;20492;-64
2023/08/08 01:34:49;;;;;;;3.23;1.93;;;12.80;99.90;;;;;;5009614;28;20559;-64
2023/08/08 01:37:21;;;;;;;2.90;2.30;;;12.90;99.90;;;;;;5022592;28;20523;-63
2023/08/08 01:39:53;;;;;;;2.87;2.50;;;12.80;99.90;;;;;;5029625;28;20842;-64
2023/08/08 01:42:24;;;;;;;3.70;2.30;;;12.80;99.90;;;;;;5014040;28;20492;-70
2023/08/08 01:44:54;;;;;;;3.93;2.03;;;12.80;99.90;;;;;;5012758;28;20472;-64
2023/08/08 01:47:22;;;;;;;5.43;2.27;;;12.80;99.90;;;;;;5016391;28;20510;-64
2023/08/08 01:49:50;;;;;;;4.90;2.27;;;12.80;99.90;;;;;;5013844;28;20515;-64
2023/08/08 01:52:18;;;;;;;2.53;2.13;;;12.80;99.90;;;;;;5012141;28;21012;-65
2023/08/08 01:54:46;;;;;;;5.90;2.30;;;12.80;99.90;;;;;;5012800;28;20503;-63
2023/08/08 01:57:14;;;;;;;4.23;2.03;;;12.90;99.90;;;;;;5012221;28;20480;-63
2023/08/08 01:59:46;;;;;;;2.70;1.90;;;12.90;99.90;;;;;;5011005;28;21023;-64
2023/08/08 02:02:15;;;;;;;2.20;2.10;;;12.90;99.90;;;;;;5011204;28;20571;-64
2023/08/08 02:04:43;;;;;;;4.93;2.50;;;12.90;99.90;;;;;;5012996;28;20489;-64
2023/08/08 02:07:11;;;;;;;5.63;2.13;;;12.90;99.90;;;;;;5013531;28;21198;-65
2023/08/08 02:09:39;;;;;;;3.40;2.10;;;12.80;99.90;;;;;;5013068;28;20483;-65
2023/08/08 02:12:08;;;;;;;4.23;2.20;;;12.80;99.90;;;;;;5006970;28;20503;-64
2023/08/08 02:14:36;;;;;;;6.00;2.20;;;12.80;99.90;;;;;;5008655;28;21048;-64
2023/08/08 02:17:05;;;;;;;3.87;1.93;;;12.80;99.90;;;;;;5007721;28;20927;-64
2023/08/08 02:19:33;;;;;;;3.87;2.23;;;12.80;99.90;;;;;;5014974;28;20540;-64
2023/08/08 02:22:02;;;;;;;2.87;2.10;;;12.80;99.90;;;;;;5025068;28;20485;-64
2023/08/08 02:24:30;;;;;;;3.30;1.97;;;12.80;99.90;;;;;;5009344;28;20933;-64
2023/08/08 02:26:58;;;;;;;4.33;1.83;;;12.80;99.90;;;;;;5008121;28;20635;-64
2023/08/08 02:29:25;;;;;;;2.73;1.60;;;12.80;99.90;;;;;;5005050;28;20482;-64
2023/08/08 02:31:53;;;;;;;2.30;1.50;;;12.70;99.90;;;;;;5005318;28;20592;-65
2023/08/08 02:34:23;;;;;;;3.70;1.77;;;12.80;99.90;;;;;;5006936;28;21021;-64
2023/08/08 02:36:51;;;;;;;2.90;1.43;;;12.80;99.90;;;;;;5007576;28;20547;-64
2023/08/08 02:39:19;;;;;;;1.97;1.50;;;12.80;99.90;;;;;;5005803;28;20563;-64
2023/08/08 02:41:47;;;;;;;1.47;1.37;;;12.80;99.90;;;;;;5004944;28;20560;-64
2023/08/08 02:44:15;;;;;;;3.17;1.83;;;12.70;99.90;;;;;;5005495;28;20480;-64
2023/08/08 02:46:43;;;;;;;3.00;1.90;;;12.70;99.90;;;;;;5005464;28;20535;-64
2023/08/08 02:49:11;;;;;;;2.23;1.50;;;12.70;99.90;;;;;;5005719;28;22165;-64
2023/08/08 02:51:42;;;;;;;3.23;1.70;;;12.80;99.90;;;;;;5007183;28;20495;-64
2023/08/08 02:54:10;;;;;;;4.87;1.90;;;12.90;99.90;;;;;;5006183;28;20897;-64
2023/08/08 02:56:37;;;;;;;3.87;1.47;;;12.80;99.90;;;;;;5004386;28;21013;-63
2023/08/08 02:59:06;;;;;;;3.50;2.30;;;12.70;99.90;;;;;;5005128;28;20923;-63
2023/08/08 03:01:37;;;;;;;3.60;1.47;;;12.70;99.90;;;;;;5003838;28;20520;-64
2023/08/08 03:04:05;;;;;;;1.80;1.70;;;12.80;99.90;;;;;;5004017;28;20480;-64
2023/08/08 03:06:33;;;;;;;3.13;1.73;;;12.70;99.90;;;;;;5006656;28;20555;-65
2023/08/08 03:09:03;;;;;;;3.60;1.93;;;12.70;99.90;;;;;;5004487;28;20927;-64
2023/08/08 03:11:31;;;;;;;2.50;1.60;;;12.70;99.90;;;;;;5007178;28;21016;-64
2023/08/08 03:13:59;;;;;;;2.00;1.50;;;12.70;99.90;;;;;;5005852;28;20559;-64
2023/08/08 03:16:27;;;;;;;3.43;1.80;;;12.70;99.90;;;;;;5005262;28;20460;-64
2023/08/08 03:18:56;;;;;;;3.63;1.80;;;12.70;99.90;;;;;;5004552;28;20530;-64
2023/08/08 03:21:24;;;;;;;3.40;1.47;;;12.70;99.90;;;;;;5003296;28;20492;-64
2023/08/08 03:23:52;;;;;;;3.60;1.63;;;12.70;99.90;;;;;;5006227;28;20936;-63
2023/08/08 03:26:21;;;;;;;2.97;2.00;;;12.80;99.90;;;;;;5007853;28;20468;-64
2023/08/08 03:28:50;;;;;;;2.10;1.67;;;12.70;99.90;;;;;;5005973;28;20542;-64
2023/08/08 03:31:18;;;;;;;2.77;1.60;;;12.80;99.90;;;;;;5005011;28;20488;-64
2023/08/08 03:33:47;;;;;;;3.80;1.50;;;12.80;99.90;;;;;;5003975;28;20496;-64
2023/08/08 03:36:15;;;;;;;3.37;1.70;;;12.80;99.90;;;;;;5004874;28;20484;-63
2023/08/08 03:38:45;;;;;;;2.70;1.60;;;12.80;99.90;;;;;;5004203;28;20484;-64
2023/08/08 03:41:14;;;;;;;4.67;1.83;;;12.80;99.90;;;;;;5006383;28;20502;-64
2023/08/08 03:43:43;;;;;;;2.50;1.67;;;12.80;99.90;;;;;;5015305;28;20508;-64
2023/08/08 03:46:11;;;;;;;4.67;2.23;;;12.80;99.90;;;;;;5026327;28;21047;-64
2023/08/08 03:48:40;;;;;;;3.20;1.80;;;12.90;99.90;;;;;;5012362;28;20495;-64
2023/08/08 03:51:08;;;;;;;2.17;1.70;;;12.90;99.90;;;;;;5007542;28;20488;-64
2023/08/08 03:53:36;;;;;;;4.27;2.33;;;12.90;99.90;;;;;;5004762;28;20600;-64
2023/08/08 03:56:04;;;;;;;3.17;1.90;;;12.90;99.90;;;;;;5006037;28;20476;-64
2023/08/08 03:58:32;;;;;;;1.60;1.50;;;12.90;99.90;;;;;;5006056;28;20559;-66
2023/08/08 04:01:01;;;;;;;4.83;1.70;;;12.90;99.90;;;;;;5004149;28;21001;-64
2023/08/08 04:03:29;;;;;;;3.77;1.90;;;12.80;99.90;;;;;;5005322;28;20587;-64
2023/08/08 04:05:57;;;;;;;3.60;1.70;;;12.90;99.90;;;;;;5004384;28;20525;-64
2023/08/08 04:08:25;;;;;;;2.13;1.83;;;12.90;99.90;;;;;;5004572;28;20567;-64
2023/08/08 04:10:53;;;;;;;3.70;1.70;;;12.90;99.90;;;;;;5004741;28;20498;-64
2023/08/08 04:13:21;;;;;;;1.60;1.50;;;12.90;99.90;;;;;;5004595;28;20918;-65
2023/08/08 04:15:51;;;;;;;2.50;1.60;;;12.90;99.90;;;;;;5006972;28;20607;-64
2023/08/08 04:18:21;;;;;;;1.77;1.60;;;12.90;99.90;;;;;;5006290;28;20567;-64
2023/08/08 04:20:49;;;;;;;2.83;2.03;;;13.00;99.90;;;;;;5003964;28;20594;-65
2023/08/08 04:23:17;;;;;;;2.07;1.63;;;13.00;99.90;;;;;;5005812;28;21627;-64
2023/08/08 04:25:45;;;;;;;5.00;1.80;;;13.00;99.90;;;;;;5004066;28;20859;-64
2023/08/08 04:28:13;;;;;;;2.07;1.53;;;12.90;99.90;;;;;;5003120;28;20484;-64
2023/08/08 04:30:41;;;;;;;2.43;1.53;;;12.90;99.90;;;;;;5002933;28;20492;-64
2023/08/08 04:33:10;;;;;;;4.50;1.77;;;12.90;99.90;;;;;;5001773;28;20594;-65
2023/08/08 04:35:39;;;;;;;2.40;1.50;;;13.00;99.90;;;;;;5003387;28;20551;-64
2023/08/08 04:38:07;;;;;;;3.20;2.00;;;13.00;99.90;;;;;;5006686;28;20539;-64
2023/08/08 04:40:35;;;;;;;2.97;1.63;;;13.00;99.90;;;;;;5004907;28;20912;-65
2023/08/08 04:43:06;;;;;;;2.60;1.43;;;13.00;99.90;;;;;;5004997;28;20491;-64
2023/08/08 04:45:34;;;;;;;2.37;2.13;;;12.90;99.90;;;;;;5004372;28;20492;-65
2023/08/08 04:48:02;;;;;;;1.97;1.50;;;12.90;99.90;;;;;;5012059;28;20515;-64
2023/08/08 04:50:30;;;;;;;1.60;1.50;;;13.00;99.90;;;;;;5022552;28;20484;-64
2023/08/08 04:52:59;;;;;;;2.30;1.60;;;13.00;99.90;;;;;;5009792;28;20528;-65
2023/08/08 04:55:27;;;;;;;1.77;1.30;;;12.90;99.90;;;;;;5008469;28;20969;-64
2023/08/08 04:57:56;;;;;;;2.23;1.50;;;12.90;99.90;;;;;;5007454;28;20551;-64
2023/08/08 05:00:24;;;;;;;1.60;1.40;;;12.90;99.90;;;;;;5003887;28;20472;-63
2023/08/08 05:02:52;;;;;;;1.67;1.50;;;12.90;99.90;;;;;;5004552;28;20512;-64
2023/08/08 05:05:20;;;;;;;1.60;1.40;;;12.90;99.90;;;;;;5003091;28;21057;-64
2023/08/08 05:07:48;;;;;;;2.07;1.43;;;13.00;99.90;;;;;;5004546;28;20543;-64
2023/08/08 05:10:17;;;;;;;2.50;1.50;;;13.00;99.90;;;;;;5005013;28;20507;-64
2023/08/08 05:12:45;;;;;;;2.87;1.60;;;13.00;99.90;;;;;;5005073;28;20496;-64
2023/08/08 05:15:13;;;;;;;3.93;1.70;;;13.00;99.90;;;;;;5005358;28;20553;-64
2023/08/08 05:17:41;;;;;;;3.60;2.00;;;13.00;99.90;;;;;;5003943;28;21116;-64
2023/08/08 05:20:10;;;;;;;3.37;1.60;;;13.10;99.90;;;;;;5002744;28;20469;-64
2023/08/08 05:22:40;;;;;;;3.10;1.60;;;13.10;99.90;;;;;;5003588;28;20495;-64
2023/08/08 05:25:08;;;;;;;1.87;1.50;;;13.20;99.90;;;;;;5005662;28;20899;-64
2023/08/08 05:27:38;;;;;;;5.10;1.83;;;13.30;99.90;;;;;;5005335;28;20595;-64
2023/08/08 05:30:07;;;;;;;2.53;1.60;;;13.30;99.90;;;;;;5004630;28;20558;-64
2023/08/08 05:32:35;;;;;;;2.00;1.57;;;13.30;99.90;;;;;;5004420;28;20546;-64
2023/08/08 05:35:04;;;;;;;1.60;1.43;;;13.40;99.90;;;;;;5005282;28;20892;-64
2023/08/08 05:37:32;;;;;;;2.50;1.60;;;13.40;99.90;;;;;;5005598;28;20479;-64
2023/08/08 05:40:00;;;;;;;2.97;1.40;;;13.50;99.90;;;;;;5006646;28;20541;-64
2023/08/08 05:42:29;;;;;;;3.50;1.60;;;13.60;99.90;;;;;;5007126;28;20573;-64
2023/08/08 05:44:58;;;;;;;2.93;1.57;;;13.70;99.90;;;;;;5008226;28;20456;-63
2023/08/08 05:47:26;;;;;;;4.13;1.63;;;13.80;99.90;;;;;;5009822;28;20949;-64
2023/08/08 05:49:55;;;;;;;4.10;1.60;;;13.80;99.90;;;;;;5012395;28;20464;-63
2023/08/08 05:52:23;;;;;;;3.60;2.07;;;13.80;99.90;;;;;;5029075;28;20488;-64
2023/08/08 05:54:51;;;;;;;3.13;1.80;;;13.90;99.90;;;;;;5023069;28;20499;-65
2023/08/08 05:57:21;;;;;;;2.63;1.93;;;13.90;99.90;;;;;;5021833;28;20502;-65
2023/08/08 05:59:49;;;;;;;3.40;1.70;;;13.80;99.90;;;;;;5017298;28;20508;-63
2023/08/08 06:02:18;;;;;;;2.17;1.97;;;13.80;99.90;;;;;;5014428;28;21006;-64
2023/08/08 06:04:46;;;;;;;3.07;1.60;;;13.90;99.90;;;;;;5009605;28;20554;-65
2023/08/08 06:07:14;;;;;;;2.63;1.60;;;14.00;99.90;;;;;;5008481;28;20512;-64
2023/08/08 06:09:42;;;;;;;1.83;1.70;;;14.00;99.90;;;;;;5007990;28;20504;-63
2023/08/08 06:12:10;;;;;;;2.33;1.63;;;14.20;99.90;;;;;;5008983;28;20499;-64
2023/08/08 06:14:38;;;;;;;2.40;1.47;;;14.10;99.90;;;;;;5007096;28;20586;-64
2023/08/08 06:17:06;;;;;;;2.20;1.70;;;14.20;99.90;;;;;;5006940;28;20500;-64
2023/08/08 06:19:36;;;;;;;4.17;2.03;;;14.20;99.90;;;;;;5005051;28;20957;-64
2023/08/08 06:22:04;;;;;;;1.93;1.57;;;14.20;99.90;;;;;;5007624;28;20558;-64
2023/08/08 06:24:32;;;;;;;3.03;2.30;;;14.30;99.90;;;;;;5009516;28;20534;-63
2023/08/08 06:27:01;;;;;;;1.90;1.57;;;14.20;99.90;;;;;;5009272;28;20464;-64
2023/08/08 06:29:30;;;;;;;3.30;2.00;;;14.30;99.90;;;;;;5008820;28;20550;-63
2023/08/08 06:31:59;;;;;;;3.63;2.17;;;14.30;99.90;;;;;;5005248;28;20524;-64
2023/08/08 06:34:27;;;;;;;4.57;1.87;;;14.30;99.90;;;;;;5009207;28;20495;-64
2023/08/08 06:36:57;;;;;;;2.60;2.17;;;14.50;99.90;;;;;;5008763;28;20500;-64
2023/08/08 06:39:25;;;;;;;2.10;2.00;;;14.60;99.90;;;;;;5008751;28;20506;-64
2023/08/08 06:41:53;;;;;;;3.80;2.20;;;14.60;99.90;;;;;;5008497;28;20476;-62
2023/08/08 06:44:22;;;;;;;2.30;2.10;;;14.70;99.90;;;;;;5008254;28;20500;-64
2023/08/08 06:46:50;;;;;;;4.87;2.10;;;14.70;99.90;;;;;;5019657;28;20479;-63
2023/08/08 06:49:18;;;;;;;1.80;1.70;;;14.70;99.90;;;;;;5022951;28;20469;-64
2023/08/08 06:51:46;;;;;;;1.87;1.70;;;14.70;99.90;;;;;;5022291;28;20523;-64
2023/08/08 06:54:16;;;;;;;2.40;1.80;;;14.70;99.90;;;;;;5022155;28;20526;-63
2023/08/08 06:56:44;;;;;;;5.43;2.00;;;14.70;99.90;;;;;;5023549;28;21059;-64
2023/08/08 06:59:12;;;;;;;2.20;1.70;;;14.80;99.90;;;;;;5022054;28;20479;-65
2023/08/08 07:01:41;;;;;;;3.10;1.67;;;14.90;99.90;;;;;;5021144;28;20931;-63
2023/08/08 07:04:09;;;;;;;2.63;2.00;;;14.90;99.90;;;;;;5023164;28;20796;-64
2023/08/08 07:06:37;;;;;;;3.17;2.03;;;15.00;99.90;;;;;;5020853;28;20488;-64
2023/08/08 07:09:06;;;;;;;2.13;1.93;;;15.00;99.90;;;;;;5021983;28;20496;-63
2023/08/08 07:11:35;;;;;;;3.33;2.00;;;15.10;99.90;;;;;;5019099;28;20484;-63
2023/08/08 07:14:03;;;;;;;3.30;1.70;;;15.10;99.90;;;;;;5023295;28;20492;-63
2023/08/08 07:16:31;;;;;;;1.80;1.70;;;15.10;99.90;;;;;;5023287;28;20468;-63
2023/08/08 07:18:59;;;;;;;3.00;1.93;;;15.10;99.90;;;;;;5023105;28;20476;-63
2023/08/08 07:21:27;;;;;;;3.13;1.60;;;15.10;99.90;;;;;;5021845;28;20515;-64
2023/08/08 07:23:56;;;;;;;3.17;1.53;;;15.20;99.90;;;;;;5018756;28;20519;-63
2023/08/08 07:26:24;;;;;;;3.43;1.60;;;15.20;99.90;;;;;;5015213;28;20459;-67
2023/08/08 07:28:54;;;;;;;2.07;1.53;;;15.30;99.90;;;;;;5005315;28;20555;-65
2023/08/08 07:31:22;;;;;;;3.30;1.70;;;15.40;99.90;;;;;;5003985;28;21129;-64
2023/08/08 07:33:50;;;;;;;1.80;1.60;;;15.50;99.90;;;;;;5002339;28;20484;-63
2023/08/08 07:36:18;;;;;;;1.97;1.40;;;15.60;99.90;;;;;;5007836;28;20484;-64
2023/08/08 07:38:46;;;;;;;1.73;1.30;;;15.50;99.90;;;;;;5006047;28;20594;-64
2023/08/08 07:41:14;;;;;;;4.60;1.90;;;15.50;99.90;;;;;;5006930;28;20554;-64
2023/08/08 07:43:42;;;;;;;2.30;1.63;;;15.60;99.90;;;;;;5004992;28;20480;-63
2023/08/08 07:46:11;;;;;;;1.80;1.37;;;15.70;99.90;;;;;;5003168;28;20464;-64
2023/08/08 07:48:40;;;;;;;2.13;1.40;;;15.80;99.90;;;;;;5005160;28;20484;-64
2023/08/08 07:51:08;;;;;;;1.43;1.30;;;15.90;99.90;;;;;;5004311;28;21087;-64
2023/08/08 07:53:36;;;;;;;2.93;1.87;;;16.00;99.90;;;;;;5006328;28;21111;-64
2023/08/08 07:56:04;;;;;;;5.43;1.97;;;16.10;99.90;;;;;;5006022;28;20575;-63
2023/08/08 07:58:33;;;;;;;2.47;1.63;;;16.20;99.90;;;;;;5024994;28;20507;-63
2023/08/08 08:01:01;;;;;;;2.70;2.00;;;16.30;99.90;;;;;;5014366;28;20488;-64
2023/08/08 08:03:30;;;;;;;3.00;1.73;;;16.30;99.90;;;;;;5005914;28;20550;-64
2023/08/08 08:05:58;;;;;;;4.20;2.23;;;16.30;99.90;;;;;;5007918;28;20567;-64
2023/08/08 08:08:26;;;;;;;3.63;1.93;;;16.40;99.90;;;;;;5007040;28;20522;-64
2023/08/08 08:10:55;;;;;;;2.60;1.70;;;16.50;99.90;;;;;;5007876;28;20488;-63
2023/08/08 08:13:23;;;;;;;3.30;1.80;;;16.50;99.90;;;;;;5003849;28;20579;-63
2023/08/08 08:15:51;;;;;;;4.60;2.17;;;16.50;99.90;;;;;;5006038;28;20527;-64
2023/08/08 08:18:20;;;;;;;2.73;1.80;;;16.60;99.90;;;;;;5006199;28;20475;-64
2023/08/08 08:20:49;;;;;;;5.37;2.20;;;16.50;99.90;;;;;;5005443;28;20581;-64
2023/08/08 08:23:18;;;;;;;3.40;1.90;;;16.50;99.90;;;;;;5004062;28;21480;-63
2023/08/08 08:25:46;;;;;;;5.53;1.97;;;16.50;99.90;;;;;;5003784;28;20557;-64
2023/08/08 08:28:14;;;;;;;2.47;2.03;;;16.40;99.90;;;;;;5006502;28;21004;-64
2023/08/08 08:30:42;;;;;;;3.90;2.37;;;16.40;99.90;;;;;;5005388;28;20491;-64
2023/08/08 08:33:10;;;;;;;2.30;1.83;;;16.40;99.90;;;;;;5004438;28;20930;-64
2023/08/08 08:35:38;;;;;;;2.10;1.70;;;16.40;99.90;;;;;;5005637;28;21091;-64
2023/08/08 08:38:08;;;;;;;3.93;1.70;;;16.40;99.90;;;;;;5002963;28;20480;-64
2023/08/08 08:40:39;;;;;;;3.37;2.10;;;16.30;99.90;;;;;;5004377;28;20484;-64
2023/08/08 08:43:10;;;;;;;2.63;1.20;;;16.20;99.90;;;;;;5004882;28;20550;-64
2023/08/08 08:45:40;;;;;;;2.03;1.57;;;16.10;99.90;;;;;;5006199;28;20487;-64
2023/08/08 08:48:11;;;;;;;1.80;1.67;;;16.10;99.90;;;;;;5006209;28;20959;-64
2023/08/08 08:50:40;;;;;;;1.67;1.13;;;16.00;99.90;;;;;;5002918;28;20526;-64
2023/08/08 08:53:10;;;;;;;1.30;1.20;;;16.00;99.90;;;;;;5003011;28;20567;-64
2023/08/08 08:55:39;;;;;;;2.50;1.50;;;16.00;99.90;;;;;;5003930;28;20934;-64
2023/08/08 08:58:07;;;;;;;2.03;1.40;;;16.00;99.90;;;;;;5003710;28;20894;-64
2023/08/08 09:00:36;;;;;;;2.90;1.40;;;16.00;99.90;;;;;;5002294;28;21059;-64
2023/08/08 09:03:05;;;;;;;1.37;1.10;;;16.10;99.90;;;;;;5004716;28;20488;-64
2023/08/08 09:05:35;;;;;;;1.80;1.20;;;16.10;99.90;;;;;;5005230;28;20476;-64
2023/08/08 09:08:03;;;;;;;2.10;1.10;;;16.10;99.90;;;;;;5005275;28;21001;-64
2023/08/08 09:10:35;;;;;;;1.10;0.80;;;16.10;99.90;;;;;;5004858;28;20543;-64
2023/08/08 09:13:02;;;;;;;1.50;1.10;;;16.10;99.90;;;;;;5004507;28;20504;-63
2023/08/08 09:15:32;;;;;;;2.13;1.20;;;16.10;99.90;;;;;;5009079;28;20555;-63
2023/08/08 09:18:00;;;;;;;2.60;1.30;;;16.10;99.90;;;;;;5008509;28;20969;-64
2023/08/08 09:20:29;;;;;;;1.60;1.20;;;16.10;99.90;;;;;;5009900;28;20492;-64
2023/08/08 09:22:57;;;;;;;2.90;1.33;;;16.00;99.90;;;;;;5008085;28;20833;-64
2023/08/08 09:25:26;;;;;;;2.53;1.17;;;16.10;99.90;;;;;;5010278;28;20464;-64
2023/08/08 09:27:56;;;;;;;3.33;1.20;;;16.10;99.90;;;;;;5006548;28;20559;-64
2023/08/08 09:30:24;;;;;;;2.30;1.50;;;16.10;99.90;;;;;;5004955;28;20578;-63
2023/08/08 09:32:52;;;;;;;1.87;1.20;;;16.20;99.90;;;;;;5005477;28;20491;-64
2023/08/08 09:35:24;;;;;;;2.90;1.30;;;16.20;99.90;;;;;;5008107;28;20937;-64
2023/08/08 09:37:54;;;;;;;2.40;1.13;;;16.20;99.90;;;;;;5008820;28;20471;-64
2023/08/08 09:40:24;;;;;;;1.97;1.17;;;16.30;99.90;;;;;;5008215;28;20503;-64
2023/08/08 09:42:53;;;;;;;2.10;1.20;;;16.30;99.90;;;;;;5005252;28;20594;-64
2023/08/08 09:45:23;;;;;;;3.40;1.13;;;16.20;99.90;;;;;;5008311;28;20556;-64
2023/08/08 09:47:53;;;;;;;1.23;1.10;;;16.20;99.90;;;;;;5008302;28;20522;-64
2023/08/08 09:50:21;;;;;;;1.07;0.90;;;16.00;99.90;;;;;;5022880;28;20469;-63
2023/08/08 09:52:50;;;;;;;1.27;1.13;;;15.90;99.90;;;;;;5023317;28;20543;-64
2023/08/08 09:55:19;;;;;;;2.40;1.10;;;15.80;99.90;;;;;;5007064;28;20510;-64
2023/08/08 09:57:49;;;;;;;2.17;1.20;;;15.70;99.90;;;;;;5007015;28;20518;-64
2023/08/08 10:00:20;;;;;;;1.90;1.53;;;15.70;99.90;;;;;;5006153;28;20550;-64
2023/08/08 10:02:50;;;;;;;1.47;1.10;;;15.60;99.90;;;;;;5008627;28;20857;-64
2023/08/08 10:05:19;;;;;;;2.43;1.50;;;15.40;99.90;;;;;;5028007;28;20470;-64
2023/08/08 10:07:47;;;;;;;7.53;2.23;;;15.30;99.90;;;;;;5018126;28;20464;-64
2023/08/08 10:10:18;;;;;;;1.70;1.20;;;15.10;99.90;;;;;;5008373;28;20563;-64
2023/08/08 10:12:48;;;;;;;5.97;1.77;;;14.90;99.90;;;;;;5007046;28;20489;-64
2023/08/08 10:15:16;;;;;;;2.30;1.43;;;14.90;99.90;;;;;;5005984;28;20492;-64
2023/08/08 10:17:45;;;;;;;2.87;1.70;;;14.90;99.90;;;;;;5003559;28;20468;-64
2023/08/08 10:20:17;;;;;;;3.20;1.50;;;15.00;99.90;;;;;;5007326;28;20479;-64
2023/08/08 10:22:47;;;;;;;3.30;1.87;;;15.10;99.90;;;;;;5006526;28;20486;-64
2023/08/08 10:25:25;;;;;;;3.27;1.50;;;15.20;99.90;;;;;;5003794;28;20997;-64
2023/08/08 10:28:04;;;;;;;3.07;1.63;;;15.30;99.90;;;;;;5007182;28;20481;-64
2023/08/08 10:30:54;;;;;;;1.90;1.30;;;15.20;99.90;;;;;;5007033;28;20487;-63
2023/08/08 10:33:24;;;;;;;1.53;1.20;;;15.20;99.90;;;;;;5008008;28;20483;-64
2023/08/08 10:35:57;;;;;;;4.13;1.60;;;15.30;99.90;;;;;;5007222;28;20616;-64
2023/08/08 10:38:25;;;;;;;3.57;1.53;;;15.30;99.90;;;;;;5006660;28;20475;-64
2023/08/08 10:41:00;;;;;;;2.67;1.90;;;15.30;99.90;;;;;;5006573;28;20489;-64
2023/08/08 10:43:29;;;;;;;3.03;1.50;;;15.30;99.90;;;;;;5006920;28;20500;-63
2023/08/08 10:46:02;;;;;;;3.27;1.43;;;15.40;99.90;;;;;;5008083;28;20956;-64
2023/08/08 10:48:51;;;;;;;1.67;1.43;;;15.60;99.90;;;;;;5005833;28;20483;-64
2023/08/08 10:51:21;;;;;;;1.40;1.30;;;15.70;99.90;;;;;;5006987;28;20574;-66
2023/08/08 10:53:53;;;;;;;1.83;1.27;;;15.70;99.90;;;;;;5005953;28;20583;-64
2023/08/08 10:56:23;;;;;;;2.27;1.30;;;15.60;99.90;;;;;;5007799;28;20593;-64
2023/08/08 10:58:51;;;;;;;1.67;1.40;;;15.30;99.90;;;;;;5005743;28;20508;-64
2023/08/08 11:01:20;;;;;;;3.43;1.30;;;15.10;99.90;;;;;;5003993;28;21052;-64
2023/08/08 11:03:49;;;;;;;2.63;1.57;;;15.00;99.90;;;;;;5005904;28;20576;-64
2023/08/08 11:06:18;;;;;;;2.03;1.40;;;14.90;99.90;;;;;;5007505;28;20833;-64
2023/08/08 11:08:48;;;;;;;2.70;1.60;;;14.90;99.90;;;;;;5006805;28;20499;-64
2023/08/08 11:11:18;;;;;;;2.00;1.20;;;14.80;99.90;;;;;;5006948;28;20504;-64
2023/08/08 11:13:46;;;;;;;2.80;1.20;;;14.80;99.90;;;;;;5004229;28;20589;-64
2023/08/08 11:16:16;;;;;;;1.10;1.00;;;14.90;99.90;;;;;;5005986;28;20492;-64
2023/08/08 11:18:44;;;;;;;2.53;1.30;;;15.00;99.90;;;;;;5005079;28;20518;-64
2023/08/08 11:21:13;;;;;;;1.83;1.40;;;15.10;99.90;;;;;;5007553;28;20598;-64
2023/08/08 11:23:48;;;;;;;2.80;1.60;;;15.20;99.90;;;;;;5004699;28;20895;-69
2023/08/08 11:26:19;;;;;;;1.50;1.13;;;15.20;99.90;;;;;;5005228;28;20551;-64
2023/08/08 11:28:51;;;;;;;1.30;1.07;;;15.00;99.90;;;;;;5006863;28;20473;-64
2023/08/08 11:31:20;;;;;;;1.33;1.23;;;14.90;99.90;;;;;;5006208;28;22484;-64
2023/08/08 11:33:48;;;;;;;3.17;1.30;;;14.80;99.90;;;;;;5004960;28;20488;-64
2023/08/08 11:36:17;;;;;;;3.77;1.50;;;14.70;99.90;;;;;;5003387;28;20582;-64
2023/08/08 11:38:45;;;;;;;3.10;1.40;;;14.70;99.90;;;;;;5003756;28;20561;-64
2023/08/08 11:41:16;;;;;;;2.07;1.40;;;14.80;99.90;;;;;;5005338;28;20534;-64
2023/08/08 11:43:46;;;;;;;1.70;1.50;;;15.00;99.90;;;;;;5006305;28;20582;-67
2023/08/08 11:46:14;;;;;;;1.73;1.17;;;15.20;99.90;;;;;;5007349;28;21185;-64
2023/08/08 11:48:43;;;;;;;2.40;1.27;;;15.40;99.90;;;;;;5006284;28;20468;-64
2023/08/08 11:51:11;;;;;;;1.47;1.20;;;15.40;99.90;;;;;;5005514;28;20575;-63
2023/08/08 11:53:50;;;;;;;2.93;1.30;;;15.40;99.90;;;;;;5004216;28;20519;-64
2023/08/08 11:56:20;;;;;;;2.70;1.30;;;15.40;99.90;;;;;;5007410;28;20530;-64
2023/08/08 11:58:51;;;;;;;3.10;1.37;;;15.50;99.90;;;;;;5006206;28;20551;-64
2023/08/08 12:01:21;;;;;;;2.07;1.33;;;15.50;99.90;;;;;;5004422;28;20523;-64
2023/08/08 12:03:49;;;;;;;2.10;1.30;;;15.50;99.90;;;;;;5008412;28;20862;-64
2023/08/08 12:06:18;;;;;;;2.83;1.23;;;15.60;99.90;;;;;;5008420;28;21008;-64
2023/08/08 12:08:47;;;;;;;2.67;1.77;;;15.80;99.90;;;;;;5005721;28;21082;-64
2023/08/08 12:11:16;;;;;;;4.43;1.43;;;16.00;99.90;;;;;;5022488;28;20547;-64
2023/08/08 12:13:46;;;;;;;2.47;1.43;;;16.10;99.90;;;;;;5020115;28;20484;-64
2023/08/08 12:16:16;;;;;;;1.70;1.17;;;16.20;99.90;;;;;;5007304;28;20557;-64
2023/08/08 12:18:45;;;;;;;2.10;1.57;;;16.10;99.90;;;;;;5007177;28;20836;-65
2023/08/08 12:21:13;;;;;;;2.00;1.13;;;16.10;99.90;;;;;;5022798;28;20514;-63
2023/08/08 12:23:41;;;;;;;2.50;1.30;;;16.10;99.90;;;;;;5016048;28;20516;-64
2023/08/08 12:26:09;;;;;;;2.73;1.50;;;16.30;99.90;;;;;;5005328;28;20575;-64
2023/08/08 12:28:37;;;;;;;2.20;1.27;;;16.50;99.90;;;;;;5006392;28;20552;-64
2023/08/08 12:31:07;;;;;;;1.63;1.53;;;16.70;99.90;;;;;;5005806;28;20500;-64
2023/08/08 12:33:35;;;;;;;2.77;1.20;;;16.90;99.90;;;;;;5005699;28;20591;-64
2023/08/08 12:36:03;;;;;;;4.20;1.30;;;17.10;99.90;;;;;;5002193;28;20503;-64
2023/08/08 12:38:31;;;;;;;1.90;1.27;;;17.40;99.90;;;;;;5003463;28;20778;-65
2023/08/08 12:41:02;;;;;;;2.83;1.40;;;17.70;99.90;;;;;;4999886;28;21124;-64
2023/08/08 12:43:30;;;;;;;5.37;1.40;;;17.90;99.90;;;;;;5007818;28;21075;-64
2023/08/08 12:45:58;;;;;;;3.67;1.70;;;18.10;99.90;;;;;;5009321;28;20562;-64
2023/08/08 12:48:27;;;;;;;3.97;1.43;;;18.10;99.90;;;;;;5009081;28;20496;-64
2023/08/08 12:50:55;;;;;;;2.57;1.37;;;18.00;99.90;;;;;;5008370;28;20495;-65
2023/08/08 12:53:23;;;;;;;2.97;1.40;;;18.00;99.90;;;;;;5008793;28;20480;-64
2023/08/08 12:55:51;;;;;;;2.93;1.37;;;18.00;99.90;;;;;;5001929;28;20544;-64